Humidity-temperature Sensor

Selected Measurement Type: Air Temperature

 
Air Temperature [°C]     6 entries per hour
Showing data from 4/18/2018 (00:00:00 Z) to 4/11/2018 (00:01:00 Z)
Previous Next [ Day | 3-Days | 7-Days ]
First Last
Prev [ Day | 3-Days | 7-Days ] Next
First Last

Start Time:     :
End Time:     :     
Time (in GMT) :00 :50 :40 :30 :20 :10
Previous Next [ Day | 3-Days | 7-Days ]
First Last
Prev [ Day | 3-Days | 7-Days ] Next
First Last


123 => good data
MM => data is determined as missing
-- => data not received/configured
Back to Top Back to Top
4/18/2018 00:00 to 23:10 25.98 26.02 25.88 26.08 26.24 26.09
4/17/2018 23:00 to 22:10 26.25 26.33 26.34 26.25 26.10 26.16
4/17/2018 22:00 to 21:10 26.26 26.38 26.58 26.47 26.31 26.58
4/17/2018 21:00 to 20:10 26.42 26.46 26.44 26.52 26.50 26.54
4/17/2018 20:00 to 19:10 26.61 26.59 26.61 26.65 26.71 26.64
4/17/2018 19:00 to 18:10 26.66 26.65 26.64 26.65 26.47 26.67
4/17/2018 18:00 to 17:10 26.66 26.78 26.67 26.67 26.72 26.76
4/17/2018 17:00 to 16:10 26.70 26.82 26.77 26.68 26.83 26.63
4/17/2018 16:00 to 15:10 26.62 26.52 26.61 26.59 26.62 26.76
4/17/2018 15:00 to 14:10 26.61 26.64 26.55 26.62 26.61 26.54
4/17/2018 14:00 to 13:10 26.48 26.61 26.46 26.58 26.43 26.45
4/17/2018 13:00 to 12:10 26.55 26.55 26.48 26.51 26.54 26.46
4/17/2018 12:00 to 11:10 26.42 26.37 26.49 26.41 26.45 26.39
4/17/2018 11:00 to 10:10 26.37 26.35 26.26 26.27 26.31 26.33
4/17/2018 10:00 to 9:10 26.27 26.12 26.16 25.92 25.83 25.99
4/17/2018 09:00 to 8:10 26.28 26.39 26.38 26.43 26.43 26.56
4/17/2018 08:00 to 7:10 26.56 26.64 26.51 26.41 26.34 26.47
4/17/2018 07:00 to 6:10 26.47 26.49 26.56 26.54 26.49 26.60
4/17/2018 06:00 to 5:10 26.48 26.49 26.60 26.55 26.51 26.47
4/17/2018 05:00 to 4:10 26.45 26.61 26.57 26.67 26.48 26.56
4/17/2018 04:00 to 3:10 26.59 26.55 26.64 26.65 26.44 26.11
4/17/2018 03:00 to 2:10 26.31 26.64 26.66 26.69 26.69 26.65
4/17/2018 02:00 to 1:10 26.67 26.59 26.62 26.56 26.54 26.65
4/17/2018 01:00 to 0:10 26.64 26.67 26.66 26.63 26.70 26.72
4/17/2018 00:00 to 23:10 26.74 26.62 26.68 26.66 26.65 26.71
4/16/2018 23:00 to 22:10 26.65 26.78 26.65 26.89 26.86 26.72
4/16/2018 22:00 to 21:10 26.85 26.74 26.58 26.71 26.81 26.69
4/16/2018 21:00 to 20:10 26.68 26.70 26.64 26.67 26.73 26.71
4/16/2018 20:00 to 19:10 26.72 26.56 26.56 26.64 26.52 26.68
4/16/2018 19:00 to 18:10 26.70 26.67 26.68 26.69 26.64 26.63
4/16/2018 18:00 to 17:10 26.61 26.69 26.66 26.72 26.64 26.71
4/16/2018 17:00 to 16:10 26.74 26.63 26.67 26.67 26.72 26.58
4/16/2018 16:00 to 15:10 26.46 26.66 26.54 26.71 26.62 26.46
4/16/2018 15:00 to 14:10 26.49 26.46 26.45 26.63 26.62 26.45
4/16/2018 14:00 to 13:10 26.24 25.93 26.21 26.26 26.35 26.33
4/16/2018 13:00 to 12:10 26.26 26.24 26.24 26.20 26.19 26.18
4/16/2018 12:00 to 11:10 26.20 26.21 26.15 26.25 26.14 26.11
4/16/2018 11:00 to 10:10 26.23 26.06 26.01 26.01 26.04 26.08
4/16/2018 10:00 to 9:10 26.10 26.09 26.09 26.08 26.03 26.17
4/16/2018 09:00 to 8:10 26.11 26.17 26.16 26.17 26.15 26.17
4/16/2018 08:00 to 7:10 26.10 26.06 26.27 26.23 26.22 26.12
4/16/2018 07:00 to 6:10 26.27 26.43 26.32 26.23 26.21 26.39
4/16/2018 06:00 to 5:10 26.34 26.21 26.33 26.36 26.36 26.33
4/16/2018 05:00 to 4:10 26.24 26.28 26.31 26.21 26.32 26.30
4/16/2018 04:00 to 3:10 26.24 26.33 26.35 26.15 26.23 26.31
4/16/2018 03:00 to 2:10 26.29 26.14 26.28 26.25 26.19 26.22
4/16/2018 02:00 to 1:10 26.21 26.26 26.22 26.16 26.25 26.12
4/16/2018 01:00 to 0:10 26.21 26.26 26.27 26.17 26.14 26.22
4/16/2018 00:00 to 23:10 26.29 26.15 26.22 26.26 26.21 26.20
4/15/2018 23:00 to 22:10 26.29 26.25 26.23 26.23 26.10 26.11
4/15/2018 22:00 to 21:10 26.14 26.12 26.07 26.10 26.07 26.17
4/15/2018 21:00 to 20:10 26.19 26.16 26.29 26.17 26.27 26.18
4/15/2018 20:00 to 19:10 26.19 26.11 26.19 26.19 26.17 26.21
4/15/2018 19:00 to 18:10 26.18 26.17 26.19 26.23 26.23 26.21
4/15/2018 18:00 to 17:10 26.24 26.21 26.18 26.19 26.25 26.23
4/15/2018 17:00 to 16:10 26.32 26.22 26.25 26.30 26.33 26.20
4/15/2018 16:00 to 15:10 26.22 26.18 26.21 26.25 26.42 26.18
4/15/2018 15:00 to 14:10 26.16 26.30 26.28 26.25 26.36 26.27
4/15/2018 14:00 to 13:10 26.03 26.16 26.00 25.89 26.10 26.19
4/15/2018 13:00 to 12:10 26.02 25.97 25.95 25.81 25.96 25.95
4/15/2018 12:00 to 11:10 25.95 25.79 25.85 25.98 25.97 25.97
4/15/2018 11:00 to 10:10 -- -- -- -- -- --
4/15/2018 10:00 to 9:10 26.00 25.95 26.00 25.87 25.86 26.12
4/15/2018 09:00 to 8:10 25.94 25.94 26.04 25.99 26.02 26.01
4/15/2018 08:00 to 7:10 26.04 26.09 26.03 26.01 26.21 26.04
4/15/2018 07:00 to 6:10 26.15 25.99 26.21 26.19 26.21 26.28
4/15/2018 06:00 to 5:10 26.25 26.23 26.22 26.34 26.31 26.21
4/15/2018 05:00 to 4:10 26.45 26.38 26.36 26.30 26.38 26.39
4/15/2018 04:00 to 3:10 26.41 26.42 26.44 26.41 26.40 26.42
4/15/2018 03:00 to 2:10 26.46 26.39 26.42 26.41 26.54 26.49
4/15/2018 02:00 to 1:10 26.39 26.40 26.36 26.40 26.32 26.31
4/15/2018 01:00 to 0:10 26.33 26.44 26.25 26.35 26.30 26.44
4/15/2018 00:00 to 23:10 26.34 26.45 26.29 26.58 26.50 26.31
4/14/2018 23:00 to 22:10 26.33 26.41 26.37 26.47 26.44 26.40
4/14/2018 22:00 to 21:10 26.62 26.26 26.50 26.46 26.62 26.28
4/14/2018 21:00 to 20:10 26.45 26.40 26.30 26.43 26.36 26.38
4/14/2018 20:00 to 19:10 26.41 26.49 26.58 26.37 26.58 26.50
4/14/2018 19:00 to 18:10 26.42 26.44 26.50 26.52 26.67 26.50
4/14/2018 18:00 to 17:10 26.46 26.54 26.50 26.59 26.39 26.50
4/14/2018 17:00 to 16:10 26.55 26.63 26.55 26.48 26.51 26.50
4/14/2018 16:00 to 15:10 26.42 26.64 26.69 26.50 26.54 26.51
4/14/2018 15:00 to 14:10 26.45 26.58 26.62 26.55 26.60 26.48
4/14/2018 14:00 to 13:10 26.43 26.58 26.56 26.47 26.48 26.38
4/14/2018 13:00 to 12:10 26.28 26.24 26.31 26.24 26.13 26.22
4/14/2018 12:00 to 11:10 26.19 26.10 26.16 26.17 26.10 26.14
4/14/2018 11:00 to 10:10 26.25 26.13 25.99 26.18 26.17 26.16
4/14/2018 10:00 to 9:10 26.19 26.15 26.11 26.19 26.31 26.06
4/14/2018 09:00 to 8:10 26.29 26.31 26.07 26.17 26.12 26.11
4/14/2018 08:00 to 7:10 26.09 26.17 26.08 26.21 26.12 26.16
4/14/2018 07:00 to 6:10 26.20 26.21 26.19 26.30 26.40 26.25
4/14/2018 06:00 to 5:10 26.22 26.29 26.32 26.25 26.27 26.41
4/14/2018 05:00 to 4:10 26.40 26.42 26.34 26.35 26.44 26.44
4/14/2018 04:00 to 3:10 26.39 26.44 26.27 26.33 26.33 26.39
4/14/2018 03:00 to 2:10 26.52 26.35 26.34 26.40 26.25 26.39
4/14/2018 02:00 to 1:10 26.35 26.40 26.46 26.40 26.43 26.46
4/14/2018 01:00 to 0:10 26.42 26.35 26.47 26.43 26.37 26.45
4/14/2018 00:00 to 23:10 26.49 26.56 26.62 26.57 26.57 26.70
4/13/2018 23:00 to 22:10 26.65 26.64 26.64 26.69 26.56 26.55
4/13/2018 22:00 to 21:10 26.49 26.54 26.56 26.46 26.52 26.58
4/13/2018 21:00 to 20:10 26.62 26.57 26.51 26.64 26.47 26.50
4/13/2018 20:00 to 19:10 26.50 26.57 26.65 26.54 26.52 26.50
4/13/2018 19:00 to 18:10 26.61 26.64 26.63 26.63 26.58 26.74
4/13/2018 18:00 to 17:10 26.70 26.64 26.67 26.70 26.52 26.38
4/13/2018 17:00 to 16:10 26.82 26.78 26.72 26.69 26.73 26.69
4/13/2018 16:00 to 15:10 26.57 26.63 26.62 26.70 26.60 26.56
4/13/2018 15:00 to 14:10 26.47 26.81 26.62 26.57 26.42 26.54
4/13/2018 14:00 to 13:10 26.46 26.41 26.43 26.30 26.37 26.30
4/13/2018 13:00 to 12:10 26.18 26.18 26.23 26.12 26.21 26.11
4/13/2018 12:00 to 11:10 26.21 26.10 26.11 25.96 26.05 26.13
4/13/2018 11:00 to 10:10 26.12 26.07 26.00 26.17 26.09 26.19
4/13/2018 10:00 to 9:10 26.14 26.13 26.13 26.16 26.10 26.14
4/13/2018 09:00 to 8:10 26.17 26.19 26.28 26.24 26.20 26.27
4/13/2018 08:00 to 7:10 26.27 26.32 26.28 26.30 26.23 26.23
4/13/2018 07:00 to 6:10 26.34 26.34 26.15 26.20 26.23 26.30
4/13/2018 06:00 to 5:10 26.26 26.28 26.29 26.36 26.29 26.35
4/13/2018 05:00 to 4:10 26.44 26.36 26.35 26.21 26.34 26.33
4/13/2018 04:00 to 3:10 26.40 26.40 26.36 26.39 26.43 26.65
4/13/2018 03:00 to 2:10 26.49 26.44 26.48 26.43 26.45 26.43
4/13/2018 02:00 to 1:10 26.62 26.58 26.68 26.66 26.71 26.68
4/13/2018 01:00 to 0:10 26.72 26.65 26.71 26.78 26.68 26.93
4/13/2018 00:00 to 23:10 26.74 26.51 26.76 26.79 26.75 26.74
4/12/2018 23:00 to 22:10 26.77 26.78 26.85 26.77 26.83 26.72
4/12/2018 22:00 to 21:10 26.84 26.92 26.85 26.87 26.86 26.80
4/12/2018 21:00 to 20:10 26.90 26.80 26.79 26.78 26.90 26.90
4/12/2018 20:00 to 19:10 26.78 26.88 26.82 26.83 26.73 26.80
4/12/2018 19:00 to 18:10 26.77 26.31 26.30 26.62 26.69 26.33
4/12/2018 18:00 to 17:10 25.93 25.49 25.68 25.16 25.25 25.13
4/12/2018 17:00 to 16:10 26.03 26.17 26.17 26.00 26.48 26.30
4/12/2018 16:00 to 15:10 26.25 26.27 25.87 26.01 26.10 26.57
4/12/2018 15:00 to 14:10 26.60 26.44 26.60 26.58 26.44 26.50
4/12/2018 14:00 to 13:10 26.51 26.20 26.11 25.97 25.99 25.78
4/12/2018 13:00 to 12:10 25.96 25.77 25.91 25.89 26.13 25.97
4/12/2018 12:00 to 11:10 26.06 25.99 25.99 25.88 26.06 26.14
4/12/2018 11:00 to 10:10 26.11 26.02 25.94 25.67 25.15 25.26
4/12/2018 10:00 to 9:10 25.32 25.90 25.89 25.91 25.95 25.97
4/12/2018 09:00 to 8:10 25.84 25.97 25.95 26.08 26.01 26.08
4/12/2018 08:00 to 7:10 26.03 26.19 26.23 26.14 26.16 26.18
4/12/2018 07:00 to 6:10 26.16 26.21 26.30 26.35 26.32 26.29
4/12/2018 06:00 to 5:10 26.30 26.49 26.40 26.44 26.45 26.19
4/12/2018 05:00 to 4:10 26.33 26.36 26.45 26.51 26.45 26.64
4/12/2018 04:00 to 3:10 26.61 26.59 26.63 26.57 26.80 26.80
4/12/2018 03:00 to 2:10 26.74 26.57 26.47 26.46 26.40 26.58
4/12/2018 02:00 to 1:10 26.59 26.49 26.46 26.49 26.26 26.46
4/12/2018 01:00 to 0:10 26.28 26.43 26.60 26.46 26.49 26.48
4/12/2018 00:00 to 23:10 26.39 26.48 26.52 26.50 26.43 26.51
4/11/2018 23:00 to 22:10 26.58 26.50 26.60 26.50 26.74 26.39
4/11/2018 22:00 to 21:10 26.49 26.52 26.45 26.69 26.52 26.65
4/11/2018 21:00 to 20:10 26.49 26.62 26.57 26.55 26.49 26.65
4/11/2018 20:00 to 19:10 26.54 26.55 26.48 26.48 26.64 26.48
4/11/2018 19:00 to 18:10 26.44 26.31 26.44 26.33 26.30 26.32
4/11/2018 18:00 to 17:10 26.40 26.40 26.40 26.36 26.35 26.41
4/11/2018 17:00 to 16:10 26.39 26.39 26.37 26.37 26.43 26.36
4/11/2018 16:00 to 15:10 26.37 26.35 26.48 26.33 26.38 26.10
4/11/2018 15:00 to 14:10 25.67 26.08 26.01 25.92 26.40 26.38
4/11/2018 14:00 to 13:10 26.36 26.55 25.99 25.97 26.12 26.28
4/11/2018 13:00 to 12:10 26.15 26.09 25.96 26.01 25.96 25.92
4/11/2018 12:00 to 11:10 26.02 26.02 25.96 25.93 25.88 25.92
4/11/2018 11:00 to 10:10 25.90 25.95 25.84 25.91 25.87 25.87
4/11/2018 10:00 to 9:10 25.77 25.87 25.97 25.92 25.87 25.95
4/11/2018 09:00 to 8:10 25.92 25.96 25.86 25.85 25.85 25.98
4/11/2018 08:00 to 7:10 25.94 25.95 25.93 26.01 26.03 25.91
4/11/2018 07:00 to 6:10 26.05 25.97 26.18 26.13 26.16 26.12
4/11/2018 06:00 to 5:10 26.16 26.09 26.11 26.11 26.08 26.14
4/11/2018 05:00 to 4:10 26.06 26.05 26.21 26.22 26.12 26.01
4/11/2018 04:00 to 3:10 26.14 26.18 26.12 26.25 26.20 26.18
4/11/2018 03:00 to 2:10 26.22 26.23 26.23 26.15 26.18 26.24
4/11/2018 02:00 to 1:10 26.17 26.29 26.28 26.22 26.30 26.21
4/11/2018 01:00 to 0:10 26.20 26.09 26.28 26.23 26.27 26.19